Time;durP1;ratioP1;P1;durP2;ratioP2;P2;SDS_P1;SDS_P2;PMS_P1;PMS_P2;Temp;Humidity;BMP_temperature;BMP_pressure;BME280_temperature;BME280_humidity;BME280_pressure;Samples;Min_cycle;Max_cycle;Signal;HPM_P1;HPM_P2
2023/04/11 00:01:03;;;;;;;3.92;3.28;;;9.90;99.90;;;;;;5058122;28;20438;-58
2023/04/11 00:03:28;;;;;;;4.82;3.10;;;9.90;99.90;;;;;;5058942;28;20025;-60
2023/04/11 00:05:54;;;;;;;7.45;4.03;;;9.90;99.90;;;;;;5060584;28;20021;-58
2023/04/11 00:08:20;;;;;;;4.30;3.28;;;9.90;99.90;;;;;;5061105;28;20027;-59
2023/04/11 00:10:45;;;;;;;6.05;2.80;;;9.90;99.90;;;;;;5057036;28;20041;-60
2023/04/11 00:13:11;;;;;;;3.10;2.67;;;9.80;99.90;;;;;;5062280;28;20028;-60
2023/04/11 00:15:38;;;;;;;3.47;3.17;;;9.80;99.90;;;;;;5059667;28;20104;-59
2023/04/11 00:18:05;;;;;;;3.22;2.92;;;9.80;99.90;;;;;;5061574;28;20032;-59
2023/04/11 00:20:30;;;;;;;4.13;3.22;;;9.80;99.90;;;;;;5053062;28;20029;-59
2023/04/11 00:22:57;;;;;;;3.03;2.72;;;9.80;99.90;;;;;;5058460;28;20091;-59
2023/04/11 00:25:23;;;;;;;4.15;2.55;;;9.80;99.90;;;;;;5062919;28;20494;-58
2023/04/11 00:27:48;;;;;;;3.28;2.72;;;9.70;99.90;;;;;;5057647;28;20051;-60
2023/04/11 00:30:14;;;;;;;3.03;2.42;;;9.70;99.90;;;;;;5058413;28;20044;-60
2023/04/11 00:32:39;;;;;;;3.50;2.88;;;9.70;99.90;;;;;;5056078;28;20024;-60
2023/04/11 00:35:07;;;;;;;3.80;3.50;;;9.70;99.90;;;;;;5060904;28;20742;-61
2023/04/11 00:37:34;;;;;;;3.47;2.65;;;9.70;99.90;;;;;;5061728;28;20013;-60
2023/04/11 00:40:04;;;;;;;3.75;2.53;;;9.70;99.90;;;;;;5061322;28;20486;-59
2023/04/11 00:42:30;;;;;;;3.22;2.40;;;9.70;99.90;;;;;;5063046;28;20040;-60
2023/04/11 00:44:56;;;;;;;3.28;2.60;;;9.70;99.90;;;;;;5058009;28;20052;-60
2023/04/11 00:47:21;;;;;;;3.63;2.60;;;9.70;99.90;;;;;;5052593;28;20059;-57
2023/04/11 00:49:47;;;;;;;3.63;2.78;;;9.60;99.90;;;;;;5049258;28;20021;-60
2023/04/11 00:52:13;;;;;;;3.60;2.40;;;9.70;99.90;;;;;;5058270;28;20024;-58
2023/04/11 00:54:39;;;;;;;2.53;2.28;;;9.60;99.90;;;;;;5057808;28;20035;-54
2023/04/11 00:57:06;;;;;;;4.75;2.35;;;9.60;99.90;;;;;;5065705;28;20008;-54
2023/04/11 00:59:32;;;;;;;3.28;2.97;;;9.60;99.90;;;;;;5058468;28;20020;-58
2023/04/11 01:01:58;;;;;;;2.95;2.17;;;9.60;99.90;;;;;;5056424;28;20124;-58
2023/04/11 01:04:25;;;;;;;2.20;2.00;;;9.60;99.90;;;;;;5061406;28;20506;-60
2023/04/11 01:06:55;;;;;;;2.42;2.17;;;9.60;99.90;;;;;;5055322;28;20029;-60
2023/04/11 01:09:24;;;;;;;2.42;1.92;;;9.50;99.90;;;;;;5058786;28;20042;-59
2023/04/11 01:11:50;;;;;;;3.70;2.00;;;9.50;99.90;;;;;;5059470;28;20032;-60
2023/04/11 01:14:18;;;;;;;3.85;2.20;;;9.50;99.90;;;;;;5053608;28;20086;-60
2023/04/11 01:16:46;;;;;;;3.30;1.80;;;9.40;99.90;;;;;;5052982;28;20577;-60
2023/04/11 01:19:16;;;;;;;3.15;2.05;;;9.40;99.90;;;;;;5043935;28;20392;-60
2023/04/11 01:21:43;;;;;;;2.15;1.85;;;9.50;99.90;;;;;;5052953;28;20115;-60
2023/04/11 01:24:09;;;;;;;2.22;2.03;;;9.40;99.90;;;;;;5054753;28;20033;-60
2023/04/11 01:26:34;;;;;;;2.17;1.85;;;9.40;99.90;;;;;;5058687;28;20082;-58
2023/04/11 01:29:01;;;;;;;2.08;1.85;;;9.40;99.90;;;;;;5063515;28;20028;-60
2023/04/11 01:31:26;;;;;;;2.35;2.05;;;9.40;99.90;;;;;;5052219;28;20030;-60
2023/04/11 01:33:52;;;;;;;6.63;2.33;;;9.40;99.90;;;;;;5062737;28;20036;-59
2023/04/11 01:36:18;;;;;;;3.50;2.35;;;9.40;99.90;;;;;;5057745;28;20056;-60
2023/04/11 01:38:44;;;;;;;1.85;1.67;;;9.40;99.90;;;;;;5065426;28;20017;-57
2023/04/11 01:41:10;;;;;;;2.88;2.17;;;9.30;99.90;;;;;;5057695;28;20455;-57
2023/04/11 01:43:35;;;;;;;3.03;2.38;;;9.30;99.90;;;;;;5046987;28;20032;-59
2023/04/11 01:46:01;;;;;;;2.55;2.13;;;9.30;99.90;;;;;;5058989;28;20029;-58
2023/04/11 01:48:27;;;;;;;2.65;2.20;;;9.30;99.90;;;;;;5052321;28;20096;-60
2023/04/11 01:50:55;;;;;;;3.58;2.58;;;9.30;99.90;;;;;;5054876;28;20044;-55
2023/04/11 01:53:20;;;;;;;5.47;2.42;;;9.30;99.90;;;;;;5058495;28;20028;-59
2023/04/11 01:55:46;;;;;;;4.20;2.47;;;9.20;99.90;;;;;;5049041;28;20394;-60
2023/04/11 01:58:11;;;;;;;2.33;2.10;;;9.20;99.90;;;;;;5048243;28;20103;-58
2023/04/11 02:00:37;;;;;;;2.88;2.10;;;9.20;99.90;;;;;;5053669;28;20042;-58
2023/04/11 02:03:03;;;;;;;2.25;2.05;;;9.20;99.90;;;;;;5058244;28;20020;-58
2023/04/11 02:05:29;;;;;;;4.53;2.33;;;9.20;99.90;;;;;;5051955;28;20755;-60
2023/04/11 02:07:55;;;;;;;2.90;2.00;;;9.20;99.90;;;;;;5053561;28;20038;-58
2023/04/11 02:10:20;;;;;;;2.58;1.83;;;9.20;99.90;;;;;;5056218;28;20499;-58
2023/04/11 02:12:46;;;;;;;2.28;2.00;;;9.20;99.90;;;;;;5053249;28;20028;-60
2023/04/11 02:15:11;;;;;;;3.15;2.05;;;9.10;99.90;;;;;;5062487;28;20021;-59
2023/04/11 02:17:43;;;;;;;2.78;2.13;;;9.10;99.90;;;;;;5044336;28;20492;-56
2023/04/11 02:20:13;;;;;;;2.15;1.95;;;9.10;99.90;;;;;;5050911;28;20100;-57
2023/04/11 02:22:38;;;;;;;4.20;2.58;;;9.20;99.90;;;;;;5055299;28;20048;-60
2023/04/11 02:25:05;;;;;;;2.67;2.03;;;9.10;99.90;;;;;;5056923;28;20474;-59
2023/04/11 02:27:32;;;;;;;3.30;2.25;;;9.10;99.90;;;;;;5060224;28;20402;-59
2023/04/11 02:29:59;;;;;;;1.75;1.60;;;9.00;99.90;;;;;;5059945;28;20391;-59
2023/04/11 02:32:25;;;;;;;3.30;2.00;;;9.00;99.90;;;;;;5063449;28;20032;-60
2023/04/11 02:34:50;;;;;;;2.60;1.55;;;9.10;99.90;;;;;;5057847;28;20073;-57
2023/04/11 02:37:16;;;;;;;2.97;1.98;;;9.00;99.90;;;;;;5053497;28;20631;-58
2023/04/11 02:39:41;;;;;;;2.63;1.83;;;9.00;99.90;;;;;;5044212;28;20124;-59
2023/04/11 02:42:07;;;;;;;4.03;2.42;;;9.00;99.90;;;;;;5054839;28;20054;-60
2023/04/11 02:44:32;;;;;;;3.33;2.13;;;9.00;99.90;;;;;;5056321;28;20031;-59
2023/04/11 02:46:58;;;;;;;2.60;1.90;;;9.00;99.90;;;;;;5055431;28;20530;-60
2023/04/11 02:49:23;;;;;;;3.03;2.28;;;9.00;99.90;;;;;;5054342;28;20017;-60
2023/04/11 02:51:49;;;;;;;2.78;2.42;;;8.90;99.90;;;;;;5058680;28;20020;-59
2023/04/11 02:54:15;;;;;;;4.90;2.10;;;9.00;99.90;;;;;;5059372;28;20175;-60
2023/04/11 02:56:42;;;;;;;2.22;1.98;;;9.00;99.90;;;;;;5059224;28;20016;-58
2023/04/11 02:59:08;;;;;;;3.20;2.30;;;8.90;99.90;;;;;;5053789;28;20398;-60
2023/04/11 03:01:33;;;;;;;4.43;3.15;;;8.90;99.90;;;;;;5055769;28;20028;-59
2023/04/11 03:03:59;;;;;;;3.45;3.00;;;8.90;99.90;;;;;;5056083;28;20021;-59
2023/04/11 03:06:25;;;;;;;11.35;3.88;;;9.00;99.90;;;;;;5049474;28;20441;-60
2023/04/11 03:08:51;;;;;;;4.60;2.92;;;8.90;99.90;;;;;;5057924;28;20593;-57
2023/04/11 03:11:17;;;;;;;3.78;2.80;;;9.00;99.90;;;;;;5055664;28;20043;-58
2023/04/11 03:13:43;;;;;;;2.85;2.30;;;9.00;99.90;;;;;;5050494;28;20063;-59
2023/04/11 03:16:08;;;;;;;5.15;2.13;;;8.90;99.90;;;;;;5057666;28;20025;-59
2023/04/11 03:18:34;;;;;;;2.92;2.05;;;8.90;99.90;;;;;;5053791;28;20434;-59
2023/04/11 03:21:00;;;;;;;3.80;2.00;;;8.80;99.90;;;;;;5055067;28;20088;-58
2023/04/11 03:23:26;;;;;;;2.47;1.63;;;8.80;99.90;;;;;;5053429;28;20044;-59
2023/04/11 03:25:52;;;;;;;2.13;1.40;;;8.70;99.90;;;;;;5060888;28;20070;-59
2023/04/11 03:28:18;;;;;;;1.60;1.20;;;8.70;99.90;;;;;;5056447;28;20117;-59
2023/04/11 03:30:45;;;;;;;1.92;1.48;;;8.60;99.90;;;;;;5057477;28;20104;-58
2023/04/11 03:33:10;;;;;;;1.23;1.00;;;8.60;99.90;;;;;;5054383;28;20334;-58
2023/04/11 03:35:36;;;;;;;2.63;1.40;;;8.60;99.90;;;;;;5053516;28;20029;-59
2023/04/11 03:38:02;;;;;;;2.30;1.13;;;8.50;99.90;;;;;;5059232;28;20082;-60
2023/04/11 03:40:28;;;;;;;2.05;1.25;;;8.50;99.90;;;;;;5056558;28;20496;-59
2023/04/11 03:42:55;;;;;;;3.25;1.40;;;8.40;99.90;;;;;;5058027;28;20044;-59
2023/04/11 03:45:20;;;;;;;1.90;1.25;;;8.40;99.90;;;;;;5061331;28;20032;-60
2023/04/11 03:47:46;;;;;;;1.08;0.95;;;8.30;99.90;;;;;;5057525;28;20028;-60
2023/04/11 03:50:12;;;;;;;3.25;1.02;;;8.30;99.90;;;;;;5055989;28;20028;-60
2023/04/11 03:52:37;;;;;;;1.50;0.60;;;8.20;99.90;;;;;;5059598;28;20394;-59
2023/04/11 03:55:04;;;;;;;1.05;0.82;;;8.20;99.90;;;;;;5056270;28;20025;-58
2023/04/11 03:57:31;;;;;;;1.33;0.70;;;8.10;99.90;;;;;;5061942;28;20039;-58
2023/04/11 03:59:57;;;;;;;0.55;0.55;;;8.10;99.90;;;;;;5057198;28;20032;-58
2023/04/11 04:02:23;;;;;;;0.93;0.63;;;8.00;99.90;;;;;;5058587;28;20025;-60
2023/04/11 04:04:53;;;;;;;1.48;0.50;;;8.00;99.90;;;;;;5047407;28;20021;-59
2023/04/11 04:07:22;;;;;;;0.50;0.40;;;7.90;99.90;;;;;;5054372;28;20025;-58
2023/04/11 04:09:48;;;;;;;1.50;0.93;;;7.90;99.90;;;;;;5056987;28;20039;-59
2023/04/11 04:12:14;;;;;;;1.40;0.77;;;7.80;99.90;;;;;;5062931;28;20029;-60
2023/04/11 04:14:39;;;;;;;1.95;0.60;;;7.90;99.90;;;;;;5066161;28;20017;-59
2023/04/11 04:17:05;;;;;;;1.20;0.63;;;7.90;99.90;;;;;;5055100;28;20055;-60
2023/04/11 04:19:30;;;;;;;1.92;0.57;;;7.80;99.90;;;;;;5065376;28;20032;-57
2023/04/11 04:21:57;;;;;;;2.33;1.15;;;7.80;99.90;;;;;;5061621;28;20025;-60
2023/04/11 04:24:26;;;;;;;0.95;0.50;;;7.70;99.90;;;;;;5069035;28;20378;-56
2023/04/11 04:26:52;;;;;;;1.60;0.82;;;7.70;99.90;;;;;;5060751;28;20064;-59
2023/04/11 04:29:18;;;;;;;0.85;0.70;;;7.70;99.90;;;;;;5070362;28;20713;-60
2023/04/11 04:31:49;;;;;;;1.20;0.35;;;7.70;99.90;;;;;;5059225;28;20037;-59
2023/04/11 04:34:20;;;;;;;1.50;0.85;;;7.60;99.90;;;;;;5059904;28;20024;-60
2023/04/11 04:36:47;;;;;;;2.33;0.57;;;7.60;99.90;;;;;;5057064;28;20025;-60
2023/04/11 04:39:16;;;;;;;1.00;0.50;;;7.60;99.90;;;;;;5047217;28;20021;-60
2023/04/11 04:41:47;;;;;;;0.88;0.65;;;7.60;99.90;;;;;;5056813;28;20042;-60
2023/04/11 04:44:16;;;;;;;1.02;0.50;;;7.60;99.90;;;;;;5056401;28;20021;-60
2023/04/11 04:46:42;;;;;;;2.60;0.70;;;7.50;99.90;;;;;;5056028;28;20031;-60
2023/04/11 04:49:08;;;;;;;1.00;0.50;;;7.50;99.90;;;;;;5061805;28;20078;-61
2023/04/11 04:51:34;;;;;;;0.95;0.88;;;7.50;99.90;;;;;;5060972;28;20013;-60
2023/04/11 04:54:00;;;;;;;1.13;0.80;;;7.50;99.90;;;;;;5060825;28;20098;-60
2023/04/11 04:56:29;;;;;;;1.42;0.73;;;7.50;99.90;;;;;;5061385;28;20060;-59
2023/04/11 04:58:55;;;;;;;1.77;1.20;;;7.50;99.90;;;;;;5059194;28;20017;-60
2023/04/11 05:01:25;;;;;;;0.93;0.73;;;7.40;99.90;;;;;;5060100;28;20486;-60
2023/04/11 05:03:57;;;;;;;0.52;0.52;;;7.50;99.90;;;;;;5061290;28;20482;-59
2023/04/11 05:06:30;;;;;;;1.77;0.90;;;7.40;99.90;;;;;;5059993;28;20035;-59
2023/04/11 05:08:58;;;;;;;1.00;0.60;;;7.50;99.90;;;;;;5055621;28;20112;-61
2023/04/11 05:11:24;;;;;;;1.13;0.50;;;7.50;99.90;;;;;;5058527;28;20021;-58
2023/04/11 05:13:50;;;;;;;3.85;1.00;;;7.50;99.90;;;;;;5059222;28;20601;-60
2023/04/11 05:16:16;;;;;;;1.15;1.05;;;7.40;99.90;;;;;;5057065;28;20024;-58
2023/04/11 05:18:42;;;;;;;2.33;1.20;;;7.40;99.90;;;;;;5064252;28;20012;-58
2023/04/11 05:21:08;;;;;;;4.45;1.02;;;7.40;99.90;;;;;;5056872;28;20017;-60
2023/04/11 05:23:34;;;;;;;0.98;0.82;;;7.50;99.90;;;;;;5064412;28;20021;-58
2023/04/11 05:26:00;;;;;;;2.17;1.63;;;7.50;99.90;;;;;;5058399;28;20387;-61
2023/04/11 05:28:25;;;;;;;3.70;1.25;;;7.40;99.90;;;;;;5063152;28;20020;-60
2023/04/11 05:30:51;;;;;;;4.15;1.40;;;7.50;99.90;;;;;;5055083;28;20083;-61
2023/04/11 05:33:17;;;;;;;1.50;1.00;;;7.40;99.90;;;;;;5051982;28;20152;-61
2023/04/11 05:35:42;;;;;;;2.25;1.05;;;7.40;99.90;;;;;;5052199;28;20082;-60
2023/04/11 05:38:08;;;;;;;1.85;1.33;;;7.50;99.90;;;;;;5049543;28;20028;-58
2023/04/11 05:40:35;;;;;;;1.23;1.13;;;7.40;99.90;;;;;;5053789;28;20477;-60
2023/04/11 05:43:01;;;;;;;3.97;1.40;;;7.50;99.90;;;;;;5050625;28;20391;-59
2023/04/11 05:45:27;;;;;;;4.05;1.13;;;7.50;99.90;;;;;;5055105;28;20370;-57
2023/04/11 05:47:52;;;;;;;3.15;1.85;;;7.40;99.90;;;;;;5054808;28;20047;-58
2023/04/11 05:50:18;;;;;;;2.70;1.52;;;7.50;99.90;;;;;;5049868;28;20025;-60
2023/04/11 05:52:44;;;;;;;3.08;1.38;;;7.50;99.90;;;;;;5053306;28;20094;-60
2023/04/11 05:55:10;;;;;;;3.42;1.63;;;7.50;99.90;;;;;;5050710;28;20044;-60
2023/04/11 05:57:35;;;;;;;2.78;1.20;;;7.50;99.90;;;;;;5054650;28;20043;-58
2023/04/11 06:00:05;;;;;;;2.50;1.15;;;7.50;99.90;;;;;;5055941;28;20510;-60
2023/04/11 06:02:32;;;;;;;5.15;1.77;;;7.50;99.90;;;;;;5054796;28;20117;-59
2023/04/11 06:04:57;;;;;;;4.65;1.40;;;7.50;99.90;;;;;;5058162;28;20021;-60
2023/04/11 06:07:23;;;;;;;6.65;1.55;;;7.60;99.90;;;;;;5049813;28;20075;-60
2023/04/11 06:09:49;;;;;;;4.00;1.83;;;7.60;99.90;;;;;;5052734;28;20020;-61
2023/04/11 06:12:15;;;;;;;3.40;1.25;;;7.60;99.90;;;;;;5050598;28;20454;-59
2023/04/11 06:14:40;;;;;;;4.88;1.35;;;7.60;99.90;;;;;;5053624;28;20019;-60
2023/04/11 06:17:06;;;;;;;3.80;1.33;;;7.60;99.90;;;;;;5052209;28;20432;-60
2023/04/11 06:19:31;;;;;;;4.18;0.90;;;7.70;99.90;;;;;;5059234;28;20017;-61
2023/04/11 06:21:57;;;;;;;5.80;1.52;;;7.70;99.90;;;;;;5058815;28;20017;-58
2023/04/11 06:24:37;;;;;;;5.00;1.38;;;7.70;99.90;;;;;;5061540;28;20017;-59
2023/04/11 06:27:02;;;;;;;2.83;1.20;;;7.70;99.90;;;;;;5058409;28;20020;-60
2023/04/11 06:29:28;;;;;;;2.45;1.65;;;7.70;99.90;;;;;;5061484;28;20128;-60
2023/04/11 06:31:54;;;;;;;2.70;1.60;;;7.70;99.90;;;;;;5057229;28;20098;-61
2023/04/11 06:34:20;;;;;;;5.18;1.90;;;7.70;99.90;;;;;;5060211;28;20028;-61
2023/04/11 06:36:48;;;;;;;3.25;1.55;;;7.70;99.90;;;;;;5057737;28;20514;-60
2023/04/11 06:39:15;;;;;;;9.98;2.20;;;7.70;99.90;;;;;;5057991;28;20016;-59
2023/04/11 06:41:41;;;;;;;8.40;2.03;;;7.70;99.90;;;;;;5058843;28;20055;-58
2023/04/11 06:44:07;;;;;;;4.72;1.67;;;7.70;99.90;;;;;;5045846;28;20082;-58
2023/04/11 06:46:33;;;;;;;4.07;1.75;;;7.70;99.90;;;;;;5060356;28;20573;-58
2023/04/11 06:48:58;;;;;;;7.93;2.00;;;7.70;99.90;;;;;;5053186;28;20031;-60
2023/04/11 06:51:24;;;;;;;3.20;2.00;;;7.70;99.90;;;;;;5059327;28;20070;-60
2023/04/11 06:53:50;;;;;;;3.78;1.85;;;7.70;99.90;;;;;;5057294;28;20029;-59
2023/04/11 06:56:16;;;;;;;6.00;2.00;;;7.60;99.90;;;;;;5059796;28;20032;-60
2023/04/11 06:58:41;;;;;;;9.88;2.20;;;7.60;99.90;;;;;;5057255;28;20020;-58
2023/04/11 07:01:07;;;;;;;4.68;1.75;;;7.60;99.90;;;;;;5058981;28;20021;-59
2023/04/11 07:03:32;;;;;;;3.22;1.40;;;7.70;99.90;;;;;;5060711;28;20017;-60
2023/04/11 07:05:58;;;;;;;5.35;1.92;;;7.70;99.90;;;;;;5058357;28;20098;-62
2023/04/11 07:08:24;;;;;;;4.03;1.85;;;7.80;99.90;;;;;;5059523;28;20058;-60
2023/04/11 07:10:49;;;;;;;7.43;1.92;;;7.90;99.90;;;;;;5057504;28;20009;-61
2023/04/11 07:13:15;;;;;;;6.13;1.75;;;7.90;99.90;;;;;;5059426;28;20095;-59
2023/04/11 07:15:41;;;;;;;3.72;1.63;;;7.90;99.90;;;;;;5057883;28;20556;-60
2023/04/11 07:18:06;;;;;;;3.97;1.73;;;7.90;99.90;;;;;;5049202;28;20572;-59
2023/04/11 07:20:33;;;;;;;4.68;1.55;;;7.80;99.90;;;;;;5058791;28;20406;-58
2023/04/11 07:22:59;;;;;;;4.80;1.85;;;7.80;99.90;;;;;;5056128;28;20021;-60
2023/04/11 07:25:26;;;;;;;1.58;1.17;;;7.70;99.90;;;;;;5058097;28;20024;-59
2023/04/11 07:27:52;;;;;;;2.80;1.13;;;7.80;99.90;;;;;;5056780;28;20032;-57
2023/04/11 07:30:17;;;;;;;3.55;1.40;;;7.70;99.90;;;;;;5058868;28;20028;-56
2023/04/11 07:32:43;;;;;;;5.20;1.92;;;7.60;99.90;;;;;;5059230;28;20020;-60
2023/04/11 07:35:09;;;;;;;2.75;0.80;;;7.60;99.90;;;;;;5056134;28;20111;-58
2023/04/11 07:37:35;;;;;;;3.58;0.77;;;7.60;99.90;;;;;;5057504;28;20050;-56
2023/04/11 07:40:00;;;;;;;1.58;0.95;;;7.60;99.90;;;;;;5056103;28;20028;-58
2023/04/11 07:42:26;;;;;;;2.97;1.15;;;7.50;99.90;;;;;;5059131;28;20100;-59
2023/04/11 07:44:51;;;;;;;1.92;0.70;;;7.50;99.90;;;;;;5061826;28;20074;-58
2023/04/11 07:47:17;;;;;;;1.05;0.50;;;7.50;99.90;;;;;;5057864;28;20024;-57
2023/04/11 07:49:42;;;;;;;1.20;0.55;;;7.40;99.90;;;;;;5062178;28;20585;-58
2023/04/11 07:52:08;;;;;;;1.55;0.55;;;7.40;99.90;;;;;;5060654;28;20031;-59
2023/04/11 07:54:34;;;;;;;0.43;0.43;;;7.40;99.90;;;;;;5060493;28;20143;-60
2023/04/11 07:57:00;;;;;;;1.52;0.60;;;7.40;99.90;;;;;;5057258;28;20040;-57
2023/04/11 07:59:25;;;;;;;0.75;0.40;;;7.40;99.90;;;;;;5062654;28;20087;-59
2023/04/11 08:01:59;;;;;;;0.75;0.57;;;7.30;99.90;;;;;;5045825;28;20025;-60
2023/04/11 08:04:25;;;;;;;1.40;0.57;;;7.30;99.90;;;;;;5062789;28;20061;-59
2023/04/11 08:06:51;;;;;;;1.15;0.30;;;7.20;99.90;;;;;;5048597;28;20395;-59
2023/04/11 08:09:16;;;;;;;2.55;0.35;;;7.20;99.90;;;;;;5061450;28;20036;-59
2023/04/11 08:11:42;;;;;;;0.82;0.50;;;7.20;99.90;;;;;;5046688;28;20029;-59
2023/04/11 08:14:08;;;;;;;1.30;0.47;;;7.20;99.90;;;;;;5063207;28;20055;-59
2023/04/11 08:16:34;;;;;;;0.63;0.60;;;7.20;99.90;;;;;;5048046;28;20021;-58
2023/04/11 08:19:00;;;;;;;3.15;0.75;;;7.20;99.90;;;;;;5063837;28;20020;-60
2023/04/11 08:21:26;;;;;;;1.92;0.90;;;7.20;99.90;;;;;;5052638;28;20032;-60
2023/04/11 08:23:51;;;;;;;1.05;0.77;;;7.10;99.90;;;;;;5056106;28;20056;-61
2023/04/11 08:26:17;;;;;;;3.22;0.55;;;7.10;99.90;;;;;;5061876;28;20081;-60
2023/04/11 08:28:43;;;;;;;2.50;0.80;;;7.20;99.90;;;;;;5059666;28;20039;-59
2023/04/11 08:31:11;;;;;;;1.10;0.60;;;7.20;99.90;;;;;;5058196;28;20025;-58
2023/04/11 08:33:37;;;;;;;1.63;0.65;;;7.20;99.90;;;;;;5050728;28;20483;-58
2023/04/11 08:36:04;;;;;;;1.52;0.75;;;7.20;99.90;;;;;;5062261;28;20017;-59
2023/04/11 08:38:30;;;;;;;1.20;0.75;;;7.20;99.90;;;;;;5054949;28;20023;-60
2023/04/11 08:40:56;;;;;;;2.78;1.20;;;7.20;99.90;;;;;;5047584;28;20025;-58
2023/04/11 08:43:22;;;;;;;2.88;1.08;;;7.20;99.90;;;;;;5061156;28;20068;-59
2023/04/11 08:45:48;;;;;;;1.02;0.68;;;7.30;99.90;;;;;;5059071;28;20078;-57
2023/04/11 08:48:14;;;;;;;0.68;0.60;;;7.30;99.90;;;;;;5063124;28;20012;-61
2023/04/11 08:50:41;;;;;;;4.97;0.80;;;7.30;99.90;;;;;;5050898;28;20060;-60
2023/04/11 08:53:07;;;;;;;2.65;1.10;;;7.30;99.90;;;;;;5051974;28;20028;-61
2023/04/11 08:55:33;;;;;;;1.35;0.75;;;7.40;99.90;;;;;;5056730;28;20124;-61
2023/04/11 08:58:00;;;;;;;1.95;0.93;;;7.30;99.90;;;;;;5065620;28;20108;-60
2023/04/11 09:00:27;;;;;;;2.70;0.82;;;7.40;99.90;;;;;;5056995;28;20028;-60
2023/04/11 09:03:02;;;;;;;1.70;1.23;;;7.40;99.90;;;;;;5066320;28;20073;-59
2023/04/11 09:05:28;;;;;;;1.40;1.00;;;7.50;99.90;;;;;;5057734;28;20427;-61
2023/04/11 09:07:54;;;;;;;1.70;1.10;;;7.60;99.90;;;;;;5058007;28;20113;-61
2023/04/11 09:10:20;;;;;;;1.98;1.33;;;7.60;99.90;;;;;;5056117;28;20111;-61
2023/04/11 09:12:46;;;;;;;2.00;1.00;;;7.70;99.90;;;;;;5044604;28;20112;-61
2023/04/11 09:15:26;;;;;;;2.70;1.13;;;7.70;99.90;;;;;;5051068;28;20558;-61
2023/04/11 09:17:53;;;;;;;2.08;1.55;;;7.80;99.90;;;;;;5045947;28;20037;-60
2023/04/11 09:20:28;;;;;;;2.55;1.63;;;8.00;99.90;;;;;;5061270;28;20035;-61
2023/04/11 09:22:53;;;;;;;2.72;1.50;;;8.10;99.90;;;;;;5060022;28;20044;-61
2023/04/11 09:25:21;;;;;;;5.38;2.20;;;8.20;99.90;;;;;;5061033;28;20047;-59
2023/04/11 09:27:47;;;;;;;4.35;2.78;;;8.30;99.90;;;;;;5054768;28;20036;-60
2023/04/11 09:30:23;;;;;;;4.72;2.72;;;8.50;99.90;;;;;;5051248;28;20057;-61
2023/04/11 09:32:51;;;;;;;4.15;2.67;;;8.70;99.90;;;;;;5058988;28;20036;-61
2023/04/11 09:35:22;;;;;;;3.53;2.90;;;8.90;99.90;;;;;;5056810;28;20034;-61
2023/04/11 09:37:55;;;;;;;5.82;2.50;;;8.90;99.90;;;;;;5054137;28;20037;-61
2023/04/11 09:40:23;;;;;;;4.38;2.58;;;8.90;99.90;;;;;;5049694;28;20028;-61
2023/04/11 09:42:56;;;;;;;5.13;2.15;;;9.00;99.90;;;;;;5062111;28;20013;-61
2023/04/11 09:45:23;;;;;;;3.50;2.35;;;9.10;99.90;;;;;;5062518;28;20020;-61
2023/04/11 09:47:51;;;;;;;3.47;1.75;;;9.20;99.90;;;;;;5058632;28;20063;-61
2023/04/11 09:50:18;;;;;;;4.03;2.10;;;9.30;99.90;;;;;;5056937;28;20036;-60
2023/04/11 09:52:44;;;;;;;4.00;2.20;;;9.40;99.90;;;;;;5061177;28;20023;-59
2023/04/11 09:55:15;;;;;;;2.53;1.65;;;9.30;99.90;;;;;;5059147;28;20119;-60
2023/04/11 09:57:46;;;;;;;2.45;1.50;;;9.30;99.90;;;;;;5061364;28;20116;-60
2023/04/11 10:00:18;;;;;;;2.80;1.85;;;9.20;99.90;;;;;;5049754;28;20052;-61
2023/04/11 10:02:48;;;;;;;2.88;1.83;;;9.10;99.90;;;;;;5059948;28;20020;-59
2023/04/11 10:05:14;;;;;;;3.47;1.88;;;9.10;99.90;;;;;;5055117;28;20033;-61
2023/04/11 10:08:06;;;;;;;4.28;2.17;;;9.20;99.90;;;;;;5053220;28;20028;-60
2023/04/11 10:10:32;;;;;;;3.90;1.90;;;9.20;99.90;;;;;;5045286;28;20029;-61
2023/04/11 10:12:58;;;;;;;2.78;1.98;;;9.20;99.90;;;;;;5058709;28;20033;-59
2023/04/11 10:15:24;;;;;;;2.63;1.67;;;9.30;99.90;;;;;;5059931;28;20024;-60
2023/04/11 10:18:10;;;;;;;2.75;1.50;;;9.20;99.90;;;;;;5055972;28;20483;-61
2023/04/11 10:20:43;;;;;;;2.60;1.50;;;9.20;99.90;;;;;;5050575;28;20022;-57
2023/04/11 10:23:09;;;;;;;3.22;1.95;;;9.20;99.90;;;;;;5058219;28;20028;-60
2023/04/11 10:25:58;;;;;;;4.82;1.63;;;9.20;99.90;;;;;;5059363;28;20425;-59
2023/04/11 10:28:39;;;;;;;2.72;1.50;;;9.20;99.90;;;;;;5055235;28;20035;-61
2023/04/11 10:31:08;;;;;;;2.67;1.42;;;9.40;99.90;;;;;;5053012;28;20068;-59
2023/04/11 10:33:35;;;;;;;3.97;1.52;;;9.50;99.90;;;;;;5055402;28;20029;-60
2023/04/11 10:36:02;;;;;;;3.65;1.23;;;9.60;99.90;;;;;;5055138;28;20083;-60
2023/04/11 10:38:40;;;;;;;1.25;1.15;;;9.50;99.90;;;;;;5054959;28;20047;-60
2023/04/11 10:41:27;;;;;;;3.10;1.23;;;9.40;99.90;;;;;;5055466;28;20086;-59
2023/04/11 10:44:19;;;;;;;1.98;0.90;;;9.20;99.90;;;;;;5054439;28;20017;-59
2023/04/11 10:46:47;;;;;;;1.05;0.70;;;9.10;99.90;;;;;;5050895;28;20050;-59
2023/04/11 10:49:34;;;;;;;1.23;0.70;;;8.90;99.90;;;;;;5057621;28;20051;-59
2023/04/11 10:52:16;;;;;;;1.38;1.02;;;8.70;99.90;;;;;;5052026;28;20063;-60
2023/04/11 10:54:44;;;;;;;0.93;0.60;;;8.60;99.90;;;;;;5055571;28;20034;-60
2023/04/11 10:57:10;;;;;;;4.15;1.42;;;8.60;99.90;;;;;;5054491;28;20228;-59
2023/04/11 10:59:36;;;;;;;2.75;1.10;;;8.40;99.90;;;;;;5052404;28;20104;-57
2023/04/11 11:02:02;;;;;;;0.70;0.68;;;8.40;99.90;;;;;;5050399;28;20037;-60
2023/04/11 11:04:34;;;;;;;0.75;0.47;;;8.40;99.90;;;;;;5056860;28;20033;-61
2023/04/11 11:07:02;;;;;;;1.65;0.73;;;8.30;99.90;;;;;;5057061;28;20029;-60
2023/04/11 11:09:28;;;;;;;1.83;0.90;;;8.30;99.90;;;;;;5053065;28;20070;-60
2023/04/11 11:12:15;;;;;;;4.40;1.33;;;8.30;99.90;;;;;;5057933;28;20067;-61
2023/04/11 11:14:42;;;;;;;2.08;1.30;;;8.30;99.90;;;;;;5063362;28;20063;-59
2023/04/11 11:17:10;;;;;;;5.25;1.27;;;8.10;99.90;;;;;;5047163;28;20044;-59
2023/04/11 11:19:35;;;;;;;3.22;0.98;;;8.00;99.90;;;;;;5061569;28;20033;-61
2023/04/11 11:22:05;;;;;;;1.65;0.80;;;8.00;99.90;;;;;;5052856;28;20459;-60
2023/04/11 11:24:31;;;;;;;1.48;0.80;;;7.90;99.90;;;;;;5050952;28;20041;-58
2023/04/11 11:26:57;;;;;;;2.85;0.90;;;7.90;99.90;;;;;;5055186;28;20029;-59
2023/04/11 11:29:34;;;;;;;1.25;0.60;;;7.90;99.90;;;;;;5059906;28;20095;-58
2023/04/11 11:32:04;;;;;;;1.52;0.65;;;7.90;99.90;;;;;;5051621;28;20384;-60
2023/04/11 11:34:33;;;;;;;0.70;0.40;;;7.90;99.90;;;;;;5034078;28;20113;-58
2023/04/11 11:37:05;;;;;;;1.58;0.50;;;8.10;99.90;;;;;;5039473;28;20155;-60
2023/04/11 11:39:31;;;;;;;1.92;0.73;;;8.10;99.90;;;;;;5035766;28;20025;-59
2023/04/11 11:41:57;;;;;;;1.80;0.50;;;8.10;99.90;;;;;;5037868;28;20082;-58
2023/04/11 11:44:30;;;;;;;2.20;0.40;;;8.20;99.90;;;;;;5035558;28;20025;-59
2023/04/11 11:47:08;;;;;;;0.77;0.50;;;8.10;99.90;;;;;;5042284;28;20403;-60
2023/04/11 11:49:48;;;;;;;1.55;0.60;;;8.10;99.90;;;;;;5053122;28;20159;-59
2023/04/11 11:52:31;;;;;;;2.72;0.73;;;8.30;99.90;;;;;;5047922;28;20028;-59
2023/04/11 11:54:57;;;;;;;2.28;0.32;;;8.40;99.90;;;;;;5059475;28;21781;-61
2023/04/11 11:57:23;;;;;;;0.68;0.40;;;8.30;99.90;;;;;;5062004;28;20108;-60
2023/04/11 11:59:56;;;;;;;1.48;0.60;;;8.30;99.90;;;;;;5061532;28;20104;-61
2023/04/11 12:02:24;;;;;;;0.20;0.20;;;8.30;99.90;;;;;;5062376;28;20028;-61
2023/04/11 12:04:58;;;;;;;2.10;0.50;;;8.20;99.90;;;;;;5060434;28;20028;-61
2023/04/11 12:07:24;;;;;;;0.52;0.47;;;8.20;99.90;;;;;;5056509;28;20428;-60
2023/04/11 12:10:07;;;;;;;0.85;0.30;;;8.30;99.90;;;;;;5061866;28;20025;-60
2023/04/11 12:12:41;;;;;;;0.30;0.30;;;8.40;99.90;;;;;;5045260;28;20036;-61
2023/04/11 12:15:15;;;;;;;1.13;0.52;;;8.50;99.90;;;;;;5048185;28;20493;-59
2023/04/11 12:17:41;;;;;;;1.70;0.63;;;8.60;99.90;;;;;;5043662;28;20033;-61
2023/04/11 12:20:09;;;;;;;0.50;0.30;;;8.60;99.90;;;;;;5050403;28;20093;-60
2023/04/11 12:22:36;;;;;;;1.35;0.45;;;8.60;99.90;;;;;;5050114;28;20471;-61
2023/04/11 12:25:04;;;;;;;0.60;0.22;;;8.60;99.90;;;;;;5059505;28;20410;-63
2023/04/11 12:27:32;;;;;;;2.83;0.45;;;8.50;99.90;;;;;;5060673;28;20390;-61
2023/04/11 12:29:57;;;;;;;1.30;0.38;;;8.40;99.90;;;;;;5058574;28;20431;-60
2023/04/11 12:32:23;;;;;;;0.68;0.20;;;8.40;99.90;;;;;;5060600;28;20043;-61
2023/04/11 12:34:49;;;;;;;0.60;0.28;;;8.20;99.90;;;;;;5059998;28;20032;-60
2023/04/11 12:37:14;;;;;;;2.67;1.00;;;8.10;99.90;;;;;;5060470;28;20088;-61
2023/04/11 12:39:41;;;;;;;0.65;0.63;;;8.10;99.90;;;;;;5059045;28;20478;-59
2023/04/11 12:42:06;;;;;;;2.08;0.35;;;8.10;99.90;;;;;;5050004;28;20025;-59
2023/04/11 12:44:32;;;;;;;1.15;0.52;;;8.20;99.90;;;;;;5062235;28;20031;-60
2023/04/11 12:46:57;;;;;;;0.88;0.40;;;8.40;99.90;;;;;;5063889;28;20036;-60
2023/04/11 12:49:23;;;;;;;1.40;0.85;;;8.60;99.90;;;;;;5061545;28;20025;-61
2023/04/11 12:51:48;;;;;;;1.13;0.30;;;8.80;99.90;;;;;;5047030;28;20028;-60
2023/04/11 12:54:14;;;;;;;1.40;0.57;;;8.90;99.90;;;;;;5061971;28;20154;-60
2023/04/11 12:56:40;;;;;;;1.63;0.90;;;9.10;99.90;;;;;;5058984;28;20020;-59
2023/04/11 12:59:05;;;;;;;5.50;2.95;;;9.20;99.90;;;;;;5056379;28;20097;-59